MSC Alexa — 3FPP6 — position and weather

sailwx.info

Track history (hours):
 
Tides and Currents Weather Stations Pressure Air Temp Water Temp Dewpoint Dewpoint Depression Visibility Wind Speed Wind Dir Waves Ship Positions

MSC Alexa

Last reported at 2018-Jan-12 14:59 UTC. Time now 2018-Jan-18 14:13 UTC.
Position N 01°13' E 103°36'.

Length 243 m; draft 9.8 m.

Type: Ship (hazmat cat A). MMSI: 356904000.

Date/timePositionNaut miles runAvg speedWind from/ knotsBaromVisibWave heightAir tempDewpointWater temp
2018-Jan-12 14:59N 01°13' E 103°36'2 4.7
2018-Jan-12 14:30N 01°13' E 103°34'3 5.1
2018-Jan-12 13:59N 01°15' E 103°32'5 9.3
2018-Jan-12 13:28N 01°20' E 103°33'2 4.9
2018-Jan-12 13:00N 01°22' E 103°33'0 0.0
2018-Jan-12 12:15N 01°22' E 103°33'0 0.0
2018-Jan-12 11:45N 01°22' E 103°33'0 0.0
2018-Jan-12 11:27N 01°22' E 103°33'0 0.0
2018-Jan-12 10:50N 01°22' E 103°33'0 0.0
2018-Jan-12 10:29N 01°22' E 103°33'0 0.0
2018-Jan-12 09:47N 01°22' E 103°33'0 0.0
2018-Jan-12 09:26N 01°22' E 103°33'0 0.0
2018-Jan-12 08:58N 01°22' E 103°33'0 0.0
2018-Jan-12 08:25N 01°22' E 103°33'0 0.0
2018-Jan-12 07:58N 01°22' E 103°33'0 0.0
2018-Jan-12 07:25N 01°22' E 103°33'0 0.0
2018-Jan-12 06:58N 01°22' E 103°33'0 0.0
2018-Jan-12 06:15N 01°22' E 103°33'0 0.0
2018-Jan-12 06:00N 01°22' E 103°33'0 0.0
2018-Jan-12 05:15N 01°22' E 103°33'0 0.0
2018-Jan-12 04:57N 01°22' E 103°33'0 0.0
2018-Jan-12 04:21N 01°22' E 103°33'0 0.0
2018-Jan-12 03:59N 01°22' E 103°33'0 0.0
2018-Jan-12 03:20N 01°22' E 103°33'0 0.0
2018-Jan-12 02:59N 01°22' E 103°33'0 0.0
2018-Jan-12 02:29N 01°22' E 103°33'0 0.8
2018-Jan-12 02:00N 01°22' E 103°33'3 6.1
2018-Jan-12 01:30N 01°19' E 103°33'4 8.8
2018-Jan-12 01:00N 01°14' E 103°32'4 7.9
2018-Jan-12 00:30N 01°12' E 103°35'4 8.7
2018-Jan-11 23:59N 01°11' E 103°40'4 8.2
2018-Jan-11 23:30N 01°09' E 103°43'4 8.8
2018-Jan-11 23:00N 01°10' E 103°47'510.6
2018-Jan-11 22:30N 01°12' E 103°52'610.6
2018-Jan-11 21:57N 01°14' E 103°58'  
2018-Jan-06 17:11N 01°14' E 103°59'313.7
2018-Jan-06 16:56N 01°13' E 103°56'512.3
2018-Jan-06 16:31N 01°11' E 103°51'4 7.3
2018-Jan-06 15:59N 01°13' E 103°48'4 7.6
2018-Jan-06 15:28N 01°17' E 103°45'0 0.0
2018-Jan-06 14:58N 01°17' E 103°45'0 0.0
2018-Jan-06 14:25N 01°17' E 103°45'0 0.0
2018-Jan-06 13:58N 01°17' E 103°45'0 0.0
2018-Jan-06 13:24N 01°17' E 103°45'0 0.0
2018-Jan-06 12:57N 01°17' E 103°45'0 0.0
2018-Jan-06 12:30N 01°17' E 103°45'0 0.0
2018-Jan-06 11:57N 01°17' E 103°45'0 0.0
2018-Jan-06 11:30N 01°17' E 103°45'0 0.0
2018-Jan-06 10:59N 01°17' E 103°45'0 0.0
2018-Jan-06 10:29N 01°17' E 103°45'0 0.0
2018-Jan-06 09:56N 01°17' E 103°45'0 0.0
2018-Jan-06 09:29N 01°17' E 103°45'0 0.0
2018-Jan-06 08:58N 01°17' E 103°45'0 0.0
2018-Jan-06 08:28N 01°17' E 103°45'0 0.0
2018-Jan-06 07:58N 01°17' E 103°45'0 0.0
2018-Jan-06 07:25N 01°17' E 103°45'0 0.0
2018-Jan-06 06:58N 01°17' E 103°45'0 0.0
2018-Jan-06 06:30N 01°17' E 103°45'0 0.0
2018-Jan-06 05:54N 01°17' E 103°45'0 0.0
2018-Jan-06 05:30N 01°17' E 103°45'0 0.0
2018-Jan-06 04:57N 01°17' E 103°45'0 0.0
2018-Jan-06 04:23N 01°17' E 103°45'0 0.0
2018-Jan-06 03:59N 01°17' E 103°45'0 0.0
2018-Jan-06 03:26N 01°17' E 103°45'0 0.0
2018-Jan-06 02:59N 01°17' E 103°45'0 0.0
2018-Jan-06 02:29N 01°17' E 103°45'0 0.0
2018-Jan-06 01:58N 01°17' E 103°45'0 0.0
2018-Jan-06 01:28N 01°17' E 103°45'0 0.0
2018-Jan-06 00:58N 01°17' E 103°45'0 0.0
2018-Jan-06 00:25N 01°17' E 103°45'0 0.0
2018-Jan-05 23:57N 01°17' E 103°45'0 0.0
2018-Jan-05 23:27N 01°17' E 103°45'0 0.0
2018-Jan-05 23:00N 01°17' E 103°45'0 0.0
2018-Jan-05 22:30N 01°17' E 103°45'0 0.0
2018-Jan-05 21:57N 01°17' E 103°45'0 0.0
2018-Jan-05 21:26N 01°17' E 103°45'0 0.0
2018-Jan-05 20:59N 01°17' E 103°45'0 0.0
2018-Jan-05 20:29N 01°17' E 103°45'0 0.0
2018-Jan-05 19:59N 01°17' E 103°45'0 0.0
2018-Jan-05 19:29N 01°17' E 103°45'0 0.0
2018-Jan-05 18:52N 01°17' E 103°45'0 0.0
2018-Jan-05 18:28N 01°17' E 103°45'0 0.0
2018-Jan-05 17:58N 01°17' E 103°45'0 0.0
2018-Jan-05 17:19N 01°17' E 103°45'0 0.0
2018-Jan-05 17:00N 01°17' E 103°45'1 2.0
2018-Jan-05 16:31N 01°16' E 103°46'4 7.6
2018-Jan-05 16:01N 01°13' E 103°48'611.5
2018-Jan-05 15:31N 01°14' E 103°54'4 7.9
2018-Jan-05 14:58N 01°15' E 103°58'  
Track history (hours):
 
Tides and Currents Weather Stations Pressure Air Temp Water Temp Dewpoint Dewpoint Depression Visibility Wind Speed Wind Dir Waves Ship Positions

MSC Alexa

Last reported at 2018-Jan-12 14:59 UTC. Time now 2018-Jan-18 14:13 UTC.
Position N 01°13' E 103°36'.

Length 243 m; draft 9.8 m.

Type: Ship (hazmat cat A). MMSI: 356904000.

Date/timePositionNaut miles runAvg speedWind from/ knotsBaromVisibWave heightAir tempDewpointWater temp
2018-Jan-12 14:59N 01°13' E 103°36'2 4.7
2018-Jan-12 14:30N 01°13' E 103°34'3 5.1
2018-Jan-12 13:59N 01°15' E 103°32'5 9.3
2018-Jan-12 13:28N 01°20' E 103°33'2 4.9
2018-Jan-12 13:00N 01°22' E 103°33'0 0.0
2018-Jan-12 12:15N 01°22' E 103°33'0 0.0
2018-Jan-12 11:45N 01°22' E 103°33'0 0.0
2018-Jan-12 11:27N 01°22' E 103°33'0 0.0
2018-Jan-12 10:50N 01°22' E 103°33'0 0.0
2018-Jan-12 10:29N 01°22' E 103°33'0 0.0
2018-Jan-12 09:47N 01°22' E 103°33'0 0.0
2018-Jan-12 09:26N 01°22' E 103°33'0 0.0
2018-Jan-12 08:58N 01°22' E 103°33'0 0.0
2018-Jan-12 08:25N 01°22' E 103°33'0 0.0
2018-Jan-12 07:58N 01°22' E 103°33'0 0.0
2018-Jan-12 07:25N 01°22' E 103°33'0 0.0
2018-Jan-12 06:58N 01°22' E 103°33'0 0.0
2018-Jan-12 06:15N 01°22' E 103°33'0 0.0
2018-Jan-12 06:00N 01°22' E 103°33'0 0.0
2018-Jan-12 05:15N 01°22' E 103°33'0 0.0
2018-Jan-12 04:57N 01°22' E 103°33'0 0.0
2018-Jan-12 04:21N 01°22' E 103°33'0 0.0
2018-Jan-12 03:59N 01°22' E 103°33'0 0.0
2018-Jan-12 03:20N 01°22' E 103°33'0 0.0
2018-Jan-12 02:59N 01°22' E 103°33'0 0.0
2018-Jan-12 02:29N 01°22' E 103°33'0 0.8
2018-Jan-12 02:00N 01°22' E 103°33'3 6.1
2018-Jan-12 01:30N 01°19' E 103°33'4 8.8
2018-Jan-12 01:00N 01°14' E 103°32'4 7.9
2018-Jan-12 00:30N 01°12' E 103°35'4 8.7
2018-Jan-11 23:59N 01°11' E 103°40'4 8.2
2018-Jan-11 23:30N 01°09' E 103°43'4 8.8
2018-Jan-11 23:00N 01°10' E 103°47'510.6
2018-Jan-11 22:30N 01°12' E 103°52'610.6
2018-Jan-11 21:57N 01°14' E 103°58'  
2018-Jan-06 17:11N 01°14' E 103°59'313.7
2018-Jan-06 16:56N 01°13' E 103°56'512.3
2018-Jan-06 16:31N 01°11' E 103°51'4 7.3
2018-Jan-06 15:59N 01°13' E 103°48'4 7.6
2018-Jan-06 15:28N 01°17' E 103°45'0 0.0
2018-Jan-06 14:58N 01°17' E 103°45'0 0.0
2018-Jan-06 14:25N 01°17' E 103°45'0 0.0
2018-Jan-06 13:58N 01°17' E 103°45'0 0.0
2018-Jan-06 13:24N 01°17' E 103°45'0 0.0
2018-Jan-06 12:57N 01°17' E 103°45'0 0.0
2018-Jan-06 12:30N 01°17' E 103°45'0 0.0
2018-Jan-06 11:57N 01°17' E 103°45'0 0.0
2018-Jan-06 11:30N 01°17' E 103°45'0 0.0
2018-Jan-06 10:59N 01°17' E 103°45'0 0.0
2018-Jan-06 10:29N 01°17' E 103°45'0 0.0
2018-Jan-06 09:56N 01°17' E 103°45'0 0.0
2018-Jan-06 09:29N 01°17' E 103°45'0 0.0
2018-Jan-06 08:58N 01°17' E 103°45'0 0.0
2018-Jan-06 08:28N 01°17' E 103°45'0 0.0
2018-Jan-06 07:58N 01°17' E 103°45'0 0.0
2018-Jan-06 07:25N 01°17' E 103°45'0 0.0
2018-Jan-06 06:58N 01°17' E 103°45'0 0.0
2018-Jan-06 06:30N 01°17' E 103°45'0 0.0
2018-Jan-06 05:54N 01°17' E 103°45'0 0.0
2018-Jan-06 05:30N 01°17' E 103°45'0 0.0
2018-Jan-06 04:57N 01°17' E 103°45'0 0.0
2018-Jan-06 04:23N 01°17' E 103°45'0 0.0
2018-Jan-06 03:59N 01°17' E 103°45'0 0.0
2018-Jan-06 03:26N 01°17' E 103°45'0 0.0
2018-Jan-06 02:59N 01°17' E 103°45'0 0.0
2018-Jan-06 02:29N 01°17' E 103°45'0 0.0
2018-Jan-06 01:58N 01°17' E 103°45'0 0.0
2018-Jan-06 01:28N 01°17' E 103°45'0 0.0
2018-Jan-06 00:58N 01°17' E 103°45'0 0.0
2018-Jan-06 00:25N 01°17' E 103°45'0 0.0
2018-Jan-05 23:57N 01°17' E 103°45'0 0.0
2018-Jan-05 23:27N 01°17' E 103°45'0 0.0
2018-Jan-05 23:00N 01°17' E 103°45'0 0.0
2018-Jan-05 22:30N 01°17' E 103°45'0 0.0
2018-Jan-05 21:57N 01°17' E 103°45'0 0.0
2018-Jan-05 21:26N 01°17' E 103°45'0 0.0
2018-Jan-05 20:59N 01°17' E 103°45'0 0.0
2018-Jan-05 20:29N 01°17' E 103°45'0 0.0
2018-Jan-05 19:59N 01°17' E 103°45'0 0.0
2018-Jan-05 19:29N 01°17' E 103°45'0 0.0
2018-Jan-05 18:52N 01°17' E 103°45'0 0.0
2018-Jan-05 18:28N 01°17' E 103°45'0 0.0
2018-Jan-05 17:58N 01°17' E 103°45'0 0.0
2018-Jan-05 17:19N 01°17' E 103°45'0 0.0
2018-Jan-05 17:00N 01°17' E 103°45'1 2.0
2018-Jan-05 16:31N 01°16' E 103°46'4 7.6
2018-Jan-05 16:01N 01°13' E 103°48'611.5
2018-Jan-05 15:31N 01°14' E 103°54'4 7.9
2018-Jan-05 14:58N 01°15' E 103°58'  

Dump ship's entire track history